createdAt,value
2018-11-26T00:01:33.030Z,13.40
2018-11-26T00:04:00.348Z,12.53
2018-11-26T00:06:27.803Z,13.70
2018-11-26T00:08:55.139Z,13.70
2018-11-26T00:11:32.186Z,13.37
2018-11-26T00:13:59.506Z,13.90
2018-11-26T00:16:26.857Z,13.70
2018-11-26T00:18:54.174Z,12.90
2018-11-26T00:21:21.497Z,14.20
2018-11-26T00:23:48.867Z,13.13
2018-11-26T00:26:16.175Z,13.63
2018-11-26T00:28:43.503Z,14.00
2018-11-26T00:31:10.843Z,13.70
2018-11-26T00:33:38.253Z,13.53
2018-11-26T00:36:05.985Z,13.33
2018-11-26T00:38:33.313Z,13.93
2018-11-26T00:41:00.711Z,13.50
2018-11-26T00:43:28.074Z,14.80
2018-11-26T00:45:55.402Z,13.93
2018-11-26T00:48:22.750Z,13.80
2018-11-26T00:50:50.112Z,14.53
2018-11-26T00:53:17.477Z,14.77
2018-11-26T00:55:44.822Z,14.23
2018-11-26T00:58:12.223Z,15.33
2018-11-26T01:00:39.563Z,14.57
2018-11-26T01:03:06.939Z,13.80
2018-11-26T01:05:34.785Z,15.30
2018-11-26T01:08:02.193Z,15.87
2018-11-26T01:10:29.562Z,14.83
2018-11-26T01:12:56.883Z,14.73
2018-11-26T01:15:24.210Z,13.93
2018-11-26T01:17:51.618Z,15.90
2018-11-26T01:20:18.949Z,15.00
2018-11-26T01:22:50.324Z,14.53
2018-11-26T01:25:17.944Z,14.80
2018-11-26T01:27:45.435Z,15.73
2018-11-26T01:30:12.793Z,14.87
2018-11-26T01:32:40.234Z,14.63
2018-11-26T01:35:07.968Z,14.97
2018-11-26T01:37:35.393Z,16.00
2018-11-26T01:40:03.331Z,15.30
2018-11-26T01:42:30.717Z,15.17
2018-11-26T01:44:58.067Z,14.97
2018-11-26T01:47:25.639Z,15.60
2018-11-26T01:49:52.975Z,15.60
2018-11-26T01:52:20.296Z,14.93
2018-11-26T01:54:47.654Z,16.10
2018-11-26T01:57:14.982Z,16.30
2018-11-26T01:59:42.339Z,15.27
2018-11-26T02:02:09.661Z,15.33
2018-11-26T02:04:37.292Z,15.83
2018-11-26T02:07:04.796Z,16.50
2018-11-26T02:09:32.150Z,16.20
2018-11-26T02:11:59.546Z,16.07
2018-11-26T02:14:26.923Z,15.90
2018-11-26T02:16:54.230Z,15.93
2018-11-26T02:19:21.927Z,15.27
2018-11-26T02:21:49.269Z,14.73
2018-11-26T02:24:16.782Z,15.43
2018-11-26T02:26:44.143Z,16.90
2018-11-26T02:29:11.505Z,15.87
2018-11-26T02:31:38.845Z,15.20
2018-11-26T02:34:06.250Z,17.43
2018-11-26T02:36:33.579Z,17.63
2018-11-26T02:39:01.823Z,15.37
2018-11-26T02:41:29.302Z,16.20
2018-11-26T02:43:56.681Z,15.73
2018-11-26T02:46:24.128Z,15.67
2018-11-26T02:48:51.715Z,16.00
2018-11-26T02:51:19.272Z,15.40
2018-11-26T02:53:46.687Z,16.67
2018-11-26T02:56:14.048Z,16.50
2018-11-26T02:58:41.379Z,17.67
2018-11-26T03:01:08.754Z,17.60
2018-11-26T03:03:36.127Z,16.70
2018-11-26T03:06:03.547Z,16.23
2018-11-26T03:08:31.456Z,17.77
2018-11-26T03:10:58.755Z,15.17
2018-11-26T03:13:26.108Z,16.20
2018-11-26T03:15:53.507Z,15.50
2018-11-26T03:18:20.937Z,16.60
2018-11-26T03:20:48.307Z,16.97
2018-11-26T03:23:15.647Z,16.60
2018-11-26T03:25:43.019Z,15.70
2018-11-26T03:28:10.344Z,17.83
2018-11-26T03:30:37.772Z,15.73
2018-11-26T03:33:05.666Z,14.90
2018-11-26T03:35:33.118Z,15.53
2018-11-26T03:38:00.424Z,14.97
2018-11-26T03:40:27.786Z,15.87
2018-11-26T03:42:55.122Z,15.53
2018-11-26T03:45:22.450Z,15.93
2018-11-26T03:47:49.764Z,15.03
2018-11-26T03:50:17.141Z,15.53
2018-11-26T03:52:44.718Z,13.97
2018-11-26T03:55:12.144Z,15.33
2018-11-26T03:57:39.504Z,14.73
2018-11-26T04:00:09.685Z,14.80
2018-11-26T04:02:36.977Z,15.40
2018-11-26T04:05:04.471Z,14.30
2018-11-26T04:07:31.815Z,15.13
2018-11-26T04:09:59.202Z,15.73
2018-11-26T04:12:26.604Z,13.23
2018-11-26T04:14:53.904Z,14.60
2018-11-26T04:17:21.276Z,15.40
2018-11-26T04:19:48.904Z,14.90
2018-11-26T04:22:16.291Z,13.20
2018-11-26T04:24:43.613Z,14.63
2018-11-26T04:27:11.051Z,14.37
2018-11-26T04:29:38.459Z,13.90
2018-11-26T04:32:05.825Z,14.50
2018-11-26T04:34:33.258Z,14.37
2018-11-26T04:37:00.549Z,13.60
2018-11-26T04:39:27.882Z,14.63
2018-11-26T04:41:55.227Z,14.73
2018-11-26T04:44:22.529Z,13.20
2018-11-26T04:46:52.859Z,14.40
2018-11-26T04:49:20.522Z,13.13
2018-11-26T04:51:47.811Z,14.40
2018-11-26T04:54:15.171Z,13.50
2018-11-26T04:56:42.879Z,13.07
2018-11-26T04:59:10.231Z,13.37
2018-11-26T05:01:37.590Z,13.50
2018-11-26T05:04:05.374Z,13.50
2018-11-26T05:06:32.754Z,13.20
2018-11-26T05:09:00.351Z,13.27
2018-11-26T05:11:27.674Z,12.47
2018-11-26T05:13:55.030Z,12.50
2018-11-26T05:16:22.390Z,12.23
2018-11-26T05:18:49.709Z,13.20
2018-11-26T05:21:17.154Z,12.40
2018-11-26T05:23:44.810Z,13.53
2018-11-26T05:26:12.117Z,13.30
2018-11-26T05:28:39.417Z,12.10
2018-11-26T05:31:08.034Z,12.10
2018-11-26T05:33:34.158Z,13.10
2018-11-26T05:36:01.487Z,13.60
2018-11-26T05:38:28.882Z,13.17
2018-11-26T05:40:56.356Z,13.20
2018-11-26T05:43:23.665Z,13.00
2018-11-26T05:45:51.113Z,13.97
2018-11-26T05:48:18.433Z,14.03
2018-11-26T05:50:45.756Z,13.93
2018-11-26T05:53:13.087Z,14.80
2018-11-26T05:55:40.421Z,14.07
2018-11-26T05:58:07.804Z,13.33
2018-11-26T06:00:36.099Z,15.13
2018-11-26T06:03:03.494Z,13.67
2018-11-26T06:05:30.820Z,13.87
2018-11-26T06:07:58.148Z,13.13
2018-11-26T06:10:25.552Z,14.57
2018-11-26T06:12:52.882Z,14.80
2018-11-26T06:15:20.217Z,15.80
2018-11-26T06:17:47.671Z,13.13
2018-11-26T06:20:15.153Z,13.63
2018-11-26T06:22:43.154Z,13.67
2018-11-26T06:25:17.744Z,12.70
2018-11-26T06:27:45.251Z,13.27
2018-11-26T06:30:13.086Z,13.63
2018-11-26T06:32:40.506Z,13.97
2018-11-26T06:35:10.981Z,13.50
2018-11-26T06:37:38.525Z,13.13
2018-11-26T06:40:06.046Z,12.90
2018-11-26T06:42:33.422Z,14.17
2018-11-26T06:45:00.913Z,11.60
2018-11-26T06:47:28.310Z,13.07
2018-11-26T06:49:55.679Z,12.80
2018-11-26T06:52:23.033Z,13.10
2018-11-26T06:54:50.454Z,12.53
2018-11-26T06:57:17.799Z,11.70
2018-11-26T06:59:45.198Z,12.73
2018-11-26T07:02:12.543Z,12.97
2018-11-26T07:04:39.880Z,11.60
2018-11-26T07:07:07.370Z,12.90
2018-11-26T07:09:34.792Z,12.57
2018-11-26T07:12:02.156Z,12.37
2018-11-26T07:14:29.518Z,12.80
2018-11-26T07:16:56.877Z,13.43
2018-11-26T07:19:30.938Z,11.80
2018-11-26T07:21:58.411Z,13.20
2018-11-26T07:24:26.834Z,12.87
2018-11-26T07:26:54.253Z,12.10
2018-11-26T07:29:24.275Z,13.23
2018-11-26T07:31:49.001Z,12.33
2018-11-26T07:34:16.515Z,12.87
2018-11-26T07:36:43.861Z,13.43
2018-11-26T07:39:11.245Z,12.27
2018-11-26T07:41:38.587Z,12.80
2018-11-26T07:44:08.271Z,12.47
2018-11-26T07:46:34.627Z,13.07
2018-11-26T07:49:02.157Z,12.77
2018-11-26T07:51:29.559Z,12.70
2018-11-26T07:53:56.929Z,12.90
2018-11-26T07:56:24.311Z,12.10
2018-11-26T07:58:51.653Z,12.00
2018-11-26T08:01:19.003Z,13.40
2018-11-26T08:03:46.375Z,12.00
2018-11-26T08:06:13.745Z,12.77
2018-11-26T08:08:41.075Z,13.20
2018-11-26T08:11:08.469Z,13.40
2018-11-26T08:13:35.824Z,12.20
2018-11-26T08:16:03.268Z,13.27
2018-11-26T08:18:30.948Z,13.97
2018-11-26T08:20:58.309Z,13.33
2018-11-26T08:23:25.683Z,13.10
2018-11-26T08:25:53.248Z,14.10
2018-11-26T08:28:21.723Z,12.53
2018-11-26T08:30:47.946Z,12.80
2018-11-26T08:33:15.331Z,12.40
2018-11-26T08:35:42.683Z,12.10
2018-11-26T08:38:15.436Z,13.50
2018-11-26T08:40:42.796Z,13.50
2018-11-26T08:43:15.450Z,12.90
2018-11-26T08:45:48.959Z,12.07
2018-11-26T08:48:25.723Z,13.43
2018-11-26T08:50:53.146Z,13.60
2018-11-26T08:53:20.460Z,12.83
2018-11-26T08:55:47.823Z,12.13
2018-11-26T08:58:15.205Z,14.33
2018-11-26T09:00:42.546Z,13.40
2018-11-26T09:03:15.259Z,12.33
2018-11-26T09:06:13.062Z,13.70
2018-11-26T09:08:40.423Z,13.03
2018-11-26T09:11:08.583Z,13.80
2018-11-26T09:13:36.924Z,13.30
2018-11-26T09:16:04.314Z,13.80
2018-11-26T09:18:31.674Z,12.67
2018-11-26T09:20:59.323Z,11.83
2018-11-26T09:23:26.607Z,12.67
2018-11-26T09:25:53.932Z,13.03
2018-11-26T09:28:21.341Z,12.53
2018-11-26T09:30:48.714Z,12.40
2018-11-26T09:33:16.140Z,13.40
2018-11-26T09:35:43.585Z,13.87
2018-11-26T09:38:13.077Z,13.83
2018-11-26T09:40:39.231Z,13.27
2018-11-26T09:43:06.919Z,13.80
2018-11-26T09:45:40.028Z,12.87
2018-11-26T09:48:02.861Z,13.97
2018-11-26T09:50:30.189Z,12.70
2018-11-26T09:52:57.534Z,12.90
2018-11-26T09:55:24.915Z,13.93
2018-11-26T09:57:52.242Z,13.60
2018-11-26T10:00:22.039Z,13.90
2018-11-26T10:02:49.988Z,13.33
2018-11-26T10:05:18.920Z,14.70
2018-11-26T10:07:46.363Z,15.30
2018-11-26T10:10:13.883Z,15.23
2018-11-26T10:12:41.716Z,14.43
2018-11-26T10:15:11.378Z,15.10
2018-11-26T10:17:38.753Z,14.67
2018-11-26T10:20:07.035Z,14.73
2018-11-26T10:22:34.402Z,14.77
2018-11-26T10:25:06.050Z,15.97
2018-11-26T10:27:29.379Z,15.30
2018-11-26T10:29:56.744Z,16.20
2018-11-26T10:32:24.144Z,16.00
2018-11-26T10:34:51.591Z,14.43
2018-11-26T10:37:18.989Z,14.97
2018-11-26T10:39:46.332Z,16.87
2018-11-26T10:42:13.743Z,15.10
2018-11-26T10:44:41.153Z,14.10
2018-11-26T10:47:08.570Z,14.30
2018-11-26T10:49:35.896Z,15.77
2018-11-26T10:52:03.324Z,16.43
2018-11-26T10:54:30.746Z,15.97
2018-11-26T10:56:58.222Z,17.10
2018-11-26T10:59:25.705Z,15.60
2018-11-26T11:01:58.530Z,15.73
2018-11-26T11:04:25.909Z,16.03
2018-11-26T11:06:55.776Z,16.23
2018-11-26T11:09:20.679Z,16.03
2018-11-26T11:11:48.078Z,15.93
2018-11-26T11:14:15.445Z,16.23
2018-11-26T11:16:42.780Z,18.90
2018-11-26T11:19:10.523Z,16.30
2018-11-26T11:21:37.878Z,17.20
2018-11-26T11:24:05.448Z,18.63
2018-11-26T11:26:32.869Z,16.40
2018-11-26T11:29:00.236Z,17.50
2018-11-26T11:31:27.792Z,17.23
2018-11-26T11:33:55.132Z,17.00
2018-11-26T11:36:22.821Z,16.70
2018-11-26T11:38:50.203Z,17.17
2018-11-26T11:41:17.579Z,16.80
2018-11-26T11:43:44.915Z,17.20
2018-11-26T11:46:16.093Z,18.40
2018-11-26T11:48:43.412Z,17.13
2018-11-26T11:51:10.754Z,17.47
2018-11-26T11:53:38.166Z,16.70
2018-11-26T11:56:05.692Z,17.10
2018-11-26T11:58:33.408Z,17.50
2018-11-26T12:01:00.811Z,16.97
2018-11-26T12:03:28.130Z,16.07
2018-11-26T12:05:55.463Z,16.93
2018-11-26T12:08:22.896Z,17.03
2018-11-26T12:10:50.217Z,16.80
2018-11-26T12:13:17.678Z,16.10
2018-11-26T12:15:47.085Z,16.63
2018-11-26T12:18:14.481Z,17.20
2018-11-26T12:20:41.949Z,18.13
2018-11-26T12:23:09.333Z,17.27
2018-11-26T12:25:36.736Z,16.50
2018-11-26T12:28:04.200Z,16.00
2018-11-26T12:30:32.392Z,15.90
2018-11-26T12:32:59.744Z,16.90
2018-11-26T12:35:27.115Z,16.10
2018-11-26T12:37:54.603Z,15.80
2018-11-26T12:40:22.482Z,16.30
2018-11-26T12:42:51.114Z,16.50
2018-11-26T12:45:19.329Z,17.07
2018-11-26T12:47:46.672Z,16.77
2018-11-26T12:50:14.096Z,15.90
2018-11-26T12:52:41.469Z,17.23
2018-11-26T12:55:10.628Z,17.30
2018-11-26T12:57:38.463Z,16.10
2018-11-26T13:00:07.429Z,17.50
2018-11-26T13:02:34.877Z,16.80
2018-11-26T13:05:02.399Z,15.93
2018-11-26T13:07:29.819Z,17.60
2018-11-26T13:09:57.466Z,16.80
2018-11-26T13:12:24.873Z,18.83
2018-11-26T13:14:52.295Z,18.03
2018-11-26T13:17:20.086Z,17.67
2018-11-26T13:19:47.647Z,17.60
2018-11-26T13:22:15.148Z,19.80
2018-11-26T13:24:42.673Z,19.23
2018-11-26T13:27:10.317Z,19.53
2018-11-26T13:29:37.799Z,17.53
2018-11-26T13:32:05.355Z,18.23
2018-11-26T13:34:33.057Z,18.50
2018-11-26T13:37:00.389Z,19.73
2018-11-26T13:39:27.771Z,18.73
2018-11-26T13:41:55.270Z,17.20
2018-11-26T13:44:23.051Z,18.30
2018-11-26T13:46:51.569Z,21.80
2018-11-26T13:49:19.012Z,26.30
2018-11-26T13:51:46.524Z,19.33
2018-11-26T13:54:13.921Z,19.60
2018-11-26T13:56:41.350Z,19.23
2018-11-26T13:59:08.889Z,18.37
2018-11-26T14:01:36.432Z,20.10
2018-11-26T14:04:03.902Z,18.33
2018-11-26T14:06:31.447Z,20.07
2018-11-26T14:08:59.032Z,19.77
2018-11-26T14:11:26.641Z,18.77
2018-11-26T14:13:54.128Z,19.10
2018-11-26T14:16:21.511Z,20.67
2018-11-26T14:18:49.455Z,19.37
2018-11-26T14:21:17.119Z,21.00
2018-11-26T14:23:44.690Z,20.57
2018-11-26T14:26:12.412Z,20.37
2018-11-26T14:28:39.859Z,18.70
2018-11-26T14:31:07.280Z,20.30
2018-11-26T14:33:34.706Z,19.77
2018-11-26T14:36:02.540Z,21.53
2018-11-26T14:38:29.619Z,21.50
2018-11-26T14:40:57.048Z,19.90
2018-11-26T14:43:24.494Z,21.40
2018-11-26T14:45:51.884Z,19.97
2018-11-26T14:48:19.190Z,21.30
2018-11-26T14:50:46.720Z,20.00
2018-11-26T14:53:14.835Z,21.00
2018-11-26T14:55:42.208Z,20.73
2018-11-26T14:58:09.605Z,21.63
2018-11-26T15:00:37.010Z,22.60
2018-11-26T15:03:04.756Z,21.50
2018-11-26T15:05:32.112Z,21.17
2018-11-26T15:07:59.791Z,20.73
2018-11-26T15:10:27.391Z,20.37
2018-11-26T15:12:54.817Z,21.43
2018-11-26T15:15:23.687Z,22.60
2018-11-26T15:17:51.330Z,22.37
2018-11-26T15:20:19.175Z,22.70
2018-11-26T15:22:46.817Z,22.00
2018-11-26T15:25:19.928Z,22.60
2018-11-26T15:27:47.330Z,23.67
2018-11-26T15:30:15.554Z,20.63
2018-11-26T15:32:43.272Z,18.57
2018-11-26T15:35:11.327Z,20.00
2018-11-26T15:37:38.813Z,18.20
2018-11-26T15:40:06.516Z,18.20
2018-11-26T15:42:33.926Z,19.63
2018-11-26T15:45:02.213Z,21.80
2018-11-26T15:47:29.566Z,23.20
2018-11-26T15:49:57.080Z,21.80
2018-11-26T15:52:24.620Z,25.27
2018-11-26T15:54:52.398Z,26.40
2018-11-26T15:57:20.151Z,25.07
2018-11-26T15:59:47.620Z,23.93
2018-11-26T16:02:15.041Z,23.87
2018-11-26T16:04:42.521Z,21.97
2018-11-26T16:07:09.988Z,20.20
2018-11-26T16:09:37.414Z,20.30
2018-11-26T16:12:04.891Z,19.43
2018-11-26T16:14:32.276Z,18.67
2018-11-26T16:16:59.703Z,18.40
2018-11-26T16:19:27.276Z,18.37
2018-11-26T16:21:55.033Z,19.07
2018-11-26T16:24:22.714Z,17.50
2018-11-26T16:26:50.472Z,20.90
2018-11-26T16:29:17.843Z,18.67
2018-11-26T16:31:45.164Z,19.00
2018-11-26T16:34:12.706Z,19.30
2018-11-26T16:36:40.106Z,19.60
2018-11-26T16:39:08.237Z,19.63
2018-11-26T16:41:35.669Z,19.57
2018-11-26T16:44:03.210Z,20.63
2018-11-26T16:46:30.712Z,17.77
2018-11-26T16:48:58.230Z,18.10
2018-11-26T16:51:25.817Z,18.47
2018-11-26T16:53:53.274Z,21.67
2018-11-26T16:56:20.786Z,19.70
2018-11-26T16:58:48.215Z,20.80
2018-11-26T17:01:15.806Z,20.87
2018-11-26T17:03:43.258Z,19.77
2018-11-26T17:06:10.725Z,21.70
2018-11-26T17:08:38.466Z,19.97
2018-11-26T17:11:06.013Z,22.80
2018-11-26T17:13:33.679Z,20.70
2018-11-26T17:16:01.920Z,22.03
2018-11-26T17:18:39.517Z,22.13
2018-11-26T17:21:07.806Z,22.20
2018-11-26T17:23:35.344Z,22.37
2018-11-26T17:26:02.950Z,20.87
2018-11-26T17:28:30.380Z,21.10
2018-11-26T17:30:57.918Z,20.43
2018-11-26T17:33:25.358Z,21.07
2018-11-26T17:35:52.811Z,20.63
2018-11-26T17:38:20.246Z,21.40
2018-11-26T17:40:47.738Z,19.73
2018-11-26T17:43:15.120Z,20.07
2018-11-26T17:45:43.001Z,22.43
2018-11-26T17:48:10.567Z,21.73
2018-11-26T17:50:39.270Z,21.30
2018-11-26T17:53:08.517Z,21.77
2018-11-26T17:55:46.444Z,23.70
2018-11-26T17:58:14.069Z,20.83
2018-11-26T18:00:42.030Z,21.40
2018-11-26T18:03:22.294Z,21.70
2018-11-26T18:05:49.900Z,22.50
2018-11-26T18:08:19.310Z,21.77
2018-11-26T18:10:47.063Z,21.83
2018-11-26T18:13:15.357Z,22.70
2018-11-26T18:15:42.821Z,20.93
2018-11-26T18:18:10.954Z,23.27
2018-11-26T18:20:38.351Z,22.03
2018-11-26T18:23:06.338Z,23.90
2018-11-26T18:25:33.684Z,23.40
2018-11-26T18:28:04.003Z,22.17
2018-11-26T18:30:32.442Z,24.00
2018-11-26T18:32:59.813Z,22.63
2018-11-26T18:35:27.162Z,22.53
2018-11-26T18:37:54.516Z,21.30
2018-11-26T18:40:22.403Z,21.60
2018-11-26T18:42:49.879Z,21.87
2018-11-26T18:45:17.645Z,23.50
2018-11-26T18:47:46.795Z,21.87
2018-11-26T18:50:17.931Z,24.67
2018-11-26T18:52:45.736Z,23.67
2018-11-26T18:55:13.131Z,24.77
2018-11-26T18:57:40.726Z,24.10
2018-11-26T19:00:10.158Z,22.37
2018-11-26T19:02:37.564Z,25.13
2018-11-26T19:05:06.021Z,22.93
2018-11-26T19:07:33.467Z,24.03
2018-11-26T19:10:01.289Z,24.70
2018-11-26T19:12:29.036Z,24.63
2018-11-26T19:14:56.434Z,25.90
2018-11-26T19:17:23.829Z,25.57
2018-11-26T19:19:51.330Z,25.13
2018-11-26T19:22:19.670Z,24.03
2018-11-26T19:24:47.127Z,24.70
2018-11-26T19:27:14.812Z,25.03
2018-11-26T19:29:42.254Z,24.43
2018-11-26T19:32:09.730Z,23.80
2018-11-26T19:34:37.365Z,24.47
2018-11-26T19:37:04.960Z,23.40
2018-11-26T19:39:32.389Z,24.33
2018-11-26T19:41:59.754Z,22.73
2018-11-26T19:44:27.694Z,25.20
2018-11-26T19:46:55.228Z,24.20
2018-11-26T19:49:22.801Z,22.57
2018-11-26T19:51:50.315Z,22.87
2018-11-26T19:54:17.806Z,24.53
2018-11-26T19:56:45.199Z,24.47
2018-11-26T19:59:12.567Z,24.43
2018-11-26T20:01:40.031Z,24.50
2018-11-26T20:04:15.930Z,25.03
2018-11-26T20:06:43.381Z,24.83
2018-11-26T20:09:10.798Z,23.97
2018-11-26T20:11:38.358Z,22.10
2018-11-26T20:14:06.087Z,23.73
2018-11-26T20:16:36.704Z,24.50
2018-11-26T20:19:04.170Z,23.23
2018-11-26T20:21:31.614Z,23.37
2018-11-26T20:23:58.981Z,24.50
2018-11-26T20:26:26.368Z,25.13
2018-11-26T20:28:56.984Z,24.00
2018-11-26T20:31:21.216Z,25.00
2018-11-26T20:33:48.590Z,24.97
2018-11-26T20:36:16.231Z,23.03
2018-11-26T20:38:43.720Z,23.57
2018-11-26T20:41:11.609Z,24.43
2018-11-26T20:43:39.085Z,24.10
2018-11-26T20:46:06.557Z,23.70
2018-11-26T20:48:33.942Z,22.10
2018-11-26T20:51:01.451Z,22.83
2018-11-26T20:53:29.251Z,24.23
2018-11-26T20:55:56.617Z,23.80
2018-11-26T20:58:24.323Z,25.27
2018-11-26T21:00:52.294Z,25.20
2018-11-26T21:03:19.733Z,23.50
2018-11-26T21:05:47.162Z,24.37
2018-11-26T21:08:14.637Z,24.90
2018-11-26T21:10:43.144Z,25.27
2018-11-26T21:13:10.458Z,26.20
2018-11-26T21:15:38.350Z,26.40
2018-11-26T21:18:11.917Z,27.13
2018-11-26T21:20:43.197Z,28.57
2018-11-26T21:23:11.329Z,27.00
2018-11-26T21:25:39.324Z,24.53
2018-11-26T21:28:07.750Z,24.93
2018-11-26T21:30:35.156Z,23.50
2018-11-26T21:33:02.592Z,22.20
2018-11-26T21:35:29.946Z,23.30
2018-11-26T21:37:57.410Z,23.13
2018-11-26T21:40:26.510Z,22.57
2018-11-26T21:42:53.893Z,22.30
2018-11-26T21:45:23.238Z,24.03
2018-11-26T21:47:50.557Z,24.00
2018-11-26T21:50:17.967Z,24.20
2018-11-26T21:52:45.339Z,23.70
2018-11-26T21:55:13.198Z,23.43
2018-11-26T21:57:40.563Z,23.40
2018-11-26T22:00:11.091Z,24.60
2018-11-26T22:02:38.973Z,25.37
2018-11-26T22:05:06.414Z,23.17
2018-11-26T22:07:33.763Z,24.77
2018-11-26T22:10:01.184Z,23.73
2018-11-26T22:12:29.612Z,27.10
2018-11-26T22:14:56.952Z,25.10
2018-11-26T22:17:24.362Z,26.20
2018-11-26T22:19:51.747Z,23.33
2018-11-26T22:22:19.093Z,23.87
2018-11-26T22:24:47.261Z,24.97
2018-11-26T22:27:14.642Z,22.83
2018-11-26T22:29:42.816Z,23.40
2018-11-26T22:32:12.529Z,25.97
2018-11-26T22:34:40.871Z,22.70
2018-11-26T22:37:08.259Z,22.00
2018-11-26T22:39:35.760Z,23.73
2018-11-26T22:42:03.212Z,22.93
2018-11-26T22:44:31.714Z,22.67
2018-11-26T22:46:59.127Z,22.60
2018-11-26T22:49:27.227Z,24.40
2018-11-26T22:51:57.003Z,23.20
2018-11-26T22:54:24.467Z,24.10
2018-11-26T22:56:52.039Z,21.70
2018-11-26T22:59:19.661Z,21.80
2018-11-26T23:01:47.001Z,21.00
2018-11-26T23:04:14.365Z,21.53
2018-11-26T23:06:41.759Z,21.63
2018-11-26T23:09:09.094Z,21.80
2018-11-26T23:11:36.461Z,22.00
2018-11-26T23:14:03.814Z,22.23
2018-11-26T23:16:31.268Z,22.93
2018-11-26T23:18:58.729Z,21.70
2018-11-26T23:23:58.882Z,23.23
2018-11-26T23:26:26.481Z,25.17
2018-11-26T23:28:53.913Z,23.90
2018-11-26T23:31:21.248Z,22.90
2018-11-26T23:33:49.050Z,23.37
2018-11-26T23:36:16.724Z,24.77
2018-11-26T23:38:44.930Z,24.10
2018-11-26T23:41:12.301Z,24.20
2018-11-26T23:43:39.644Z,25.37
2018-11-26T23:46:07.986Z,25.40
2018-11-26T23:48:35.630Z,25.17
2018-11-26T23:51:03.612Z,27.83
2018-11-26T23:53:31.010Z,28.80
2018-11-26T23:55:58.356Z,28.17
2018-11-26T23:58:25.756Z,26.00
